Time;durP1;ratioP1;P1;durP2;ratioP2;P2;SDS_P1;SDS_P2;PMS_P1;PMS_P2;Temp;Humidity;BMP_temperature;BMP_pressure;BME280_temperature;BME280_humidity;BME280_pressure;Samples;Min_cycle;Max_cycle;Signal;HPM_P1;HPM_P2
2022/04/05 00:00:33;;;;;;;17.70;15.90;;;6.70;99.90;;;;;;5016710;28;20502;-64
2022/04/05 00:03:11;;;;;;;15.93;14.33;;;6.70;99.90;;;;;;5022058;28;20463;-64
2022/04/05 00:05:56;;;;;;;14.07;12.67;;;6.80;99.90;;;;;;5036969;28;20467;-63
2022/04/05 00:08:27;;;;;;;14.53;13.13;;;6.80;99.90;;;;;;5039211;28;20913;-63
2022/04/05 00:10:57;;;;;;;14.23;12.83;;;6.80;99.90;;;;;;5039512;28;20541;-64
2022/04/05 00:13:25;;;;;;;14.33;12.90;;;6.80;99.90;;;;;;5040192;28;20557;-64
2022/04/05 00:15:52;;;;;;;14.70;13.30;;;6.80;99.90;;;;;;5040423;28;20568;-62
2022/04/05 00:18:19;;;;;;;15.50;13.93;;;6.90;99.90;;;;;;5040271;28;20459;-64
2022/04/05 00:20:55;;;;;;;12.93;11.70;;;6.90;99.90;;;;;;5038206;28;20905;-63
2022/04/05 00:23:28;;;;;;;11.33;10.27;;;6.90;99.90;;;;;;5039923;28;20473;-64
2022/04/05 00:25:58;;;;;;;12.80;11.57;;;7.00;99.90;;;;;;5040331;28;20502;-64
2022/04/05 00:28:25;;;;;;;13.90;12.53;;;7.00;99.90;;;;;;5040215;28;20565;-64
2022/04/05 00:30:52;;;;;;;12.23;11.03;;;7.00;99.90;;;;;;5030211;28;20521;-64
2022/04/05 00:33:18;;;;;;;12.70;11.40;;;7.00;99.90;;;;;;5020464;28;20832;-64
2022/04/05 00:35:48;;;;;;;11.50;10.40;;;7.00;99.90;;;;;;5020388;28;20967;-64
2022/04/05 00:38:16;;;;;;;12.63;10.03;;;7.00;99.90;;;;;;5020414;28;20503;-64
2022/04/05 00:40:44;;;;;;;11.10;10.10;;;7.10;99.90;;;;;;5023023;28;20722;-64
2022/04/05 00:43:14;;;;;;;10.37;9.37;;;7.10;99.90;;;;;;5040239;28;20525;-65
2022/04/05 00:45:41;;;;;;;11.40;10.40;;;7.20;99.90;;;;;;5039410;28;20549;-65
2022/04/05 00:48:08;;;;;;;10.90;9.90;;;7.20;99.90;;;;;;5040250;28;20459;-67
2022/04/05 00:50:42;;;;;;;12.00;10.80;;;7.20;99.90;;;;;;5039618;28;20494;-65
2022/04/05 00:53:10;;;;;;;11.47;10.40;;;7.20;99.90;;;;;;5034608;28;20459;-64
2022/04/05 00:55:38;;;;;;;11.90;10.70;;;7.20;99.90;;;;;;5037862;28;20463;-65
2022/04/05 00:58:10;;;;;;;10.17;9.17;;;7.20;99.90;;;;;;5039120;28;20506;-65
2022/04/05 01:00:43;;;;;;;11.57;10.57;;;7.20;99.90;;;;;;5039479;28;20471;-65
2022/04/05 01:03:12;;;;;;;10.30;9.20;;;7.30;99.90;;;;;;5022469;28;20464;-65
2022/04/05 01:05:47;;;;;;;10.67;9.67;;;7.30;99.90;;;;;;5019962;28;20530;-66
2022/04/05 01:08:20;;;;;;;10.40;9.47;;;7.30;99.90;;;;;;5019288;28;20463;-65
2022/04/05 01:10:48;;;;;;;9.23;8.33;;;7.30;99.90;;;;;;5019238;28;20857;-65
2022/04/05 01:13:18;;;;;;;9.67;8.67;;;7.30;99.90;;;;;;5031987;28;20463;-65
2022/04/05 01:15:45;;;;;;;11.70;8.97;;;7.40;99.90;;;;;;5039714;28;20892;-65
2022/04/05 01:18:15;;;;;;;8.60;7.80;;;7.40;99.90;;;;;;5037470;28;20888;-65
2022/04/05 01:20:43;;;;;;;9.43;8.53;;;7.40;99.90;;;;;;5039264;28;20466;-65
2022/04/05 01:23:13;;;;;;;8.93;8.03;;;7.40;99.90;;;;;;5029516;28;20526;-65
2022/04/05 01:25:46;;;;;;;10.20;8.07;;;7.50;99.90;;;;;;5019461;28;20474;-66
2022/04/05 01:28:17;;;;;;;9.97;8.97;;;7.50;99.90;;;;;;5019526;28;20471;-65
2022/04/05 01:30:43;;;;;;;9.63;8.63;;;7.50;99.90;;;;;;5018979;28;20460;-65
2022/04/05 01:33:14;;;;;;;8.77;7.97;;;7.50;99.90;;;;;;5023658;28;20463;-66
2022/04/05 01:35:46;;;;;;;7.90;7.17;;;7.50;99.90;;;;;;5039605;28;20938;-66
2022/04/05 01:38:14;;;;;;;8.60;7.70;;;7.50;99.90;;;;;;5038347;28;20519;-67
2022/04/05 01:40:54;;;;;;;8.80;7.90;;;7.50;99.90;;;;;;5039048;28;20808;-69
2022/04/05 01:43:21;;;;;;;7.93;7.17;;;7.50;99.90;;;;;;5036017;28;20922;-66
2022/04/05 01:45:53;;;;;;;8.47;7.67;;;7.60;99.90;;;;;;5035704;28;20465;-66
2022/04/05 01:48:21;;;;;;;7.60;6.73;;;7.60;99.90;;;;;;5018718;28;20519;-66
2022/04/05 01:50:48;;;;;;;8.13;7.33;;;7.70;99.90;;;;;;5019063;28;20965;-67
2022/04/05 01:53:16;;;;;;;8.33;7.10;;;7.60;99.90;;;;;;5032603;28;20463;-68
2022/04/05 01:55:50;;;;;;;7.67;6.80;;;7.70;99.90;;;;;;5038564;28;20463;-67
2022/04/05 01:58:27;;;;;;;8.30;7.00;;;7.70;99.90;;;;;;5018125;28;20459;-64
2022/04/05 02:00:54;;;;;;;7.97;7.17;;;7.70;99.90;;;;;;5019429;28;20464;-66
2022/04/05 02:03:21;;;;;;;7.47;6.67;;;7.70;99.90;;;;;;5018702;28;20587;-66
2022/04/05 02:05:48;;;;;;;8.30;7.50;;;7.70;99.90;;;;;;5018910;28;20471;-66
2022/04/05 02:08:20;;;;;;;8.87;7.97;;;7.70;99.90;;;;;;5019418;28;20468;-66
2022/04/05 02:10:50;;;;;;;9.30;8.40;;;7.80;99.90;;;;;;5018249;28;20550;-66
2022/04/05 02:13:19;;;;;;;10.27;8.80;;;7.80;99.90;;;;;;5025206;28;20459;-66
2022/04/05 02:15:49;;;;;;;10.80;9.80;;;7.80;99.90;;;;;;5023558;28;20495;-65
2022/04/05 02:18:15;;;;;;;11.40;10.13;;;7.80;99.90;;;;;;5017912;28;20475;-65
2022/04/05 02:20:44;;;;;;;10.47;9.37;;;7.80;99.90;;;;;;5018478;28;20510;-65
2022/04/05 02:23:19;;;;;;;9.43;8.43;;;7.80;99.90;;;;;;5018378;28;20464;-66
2022/04/05 02:25:48;;;;;;;9.40;8.33;;;7.90;99.90;;;;;;5028022;28;20917;-68
2022/04/05 02:28:25;;;;;;;10.17;9.17;;;7.90;99.90;;;;;;5037649;28;20529;-70
2022/04/05 02:31:01;;;;;;;10.27;8.97;;;7.90;99.90;;;;;;5036153;28;20483;-69
2022/04/05 02:33:28;;;;;;;11.40;10.30;;;7.90;99.90;;;;;;5037576;28;20485;-70
2022/04/05 02:35:56;;;;;;;11.23;10.13;;;7.90;99.90;;;;;;5029787;28;20464;-70
2022/04/05 02:38:24;;;;;;;12.23;10.70;;;8.00;99.90;;;;;;5017888;28;20526;-67
2022/04/05 02:41:01;;;;;;;12.90;11.50;;;8.00;99.90;;;;;;5018910;28;20518;-66
2022/04/05 02:43:31;;;;;;;12.30;11.00;;;8.10;99.90;;;;;;5019095;28;20470;-66
2022/04/05 02:46:00;;;;;;;12.13;10.93;;;8.10;99.90;;;;;;5021547;28;20771;-66
2022/04/05 02:48:28;;;;;;;11.80;10.60;;;8.10;99.90;;;;;;5018237;28;20460;-67
2022/04/05 02:50:55;;;;;;;12.47;11.17;;;8.10;99.90;;;;;;5029468;28;20491;-65
2022/04/05 02:53:22;;;;;;;14.33;11.50;;;8.10;99.90;;;;;;5020731;28;20464;-66
2022/04/05 02:55:52;;;;;;;9.73;8.73;;;8.10;99.90;;;;;;5017267;28;20464;-66
2022/04/05 02:58:19;;;;;;;8.47;7.57;;;8.10;99.90;;;;;;5017593;28;20518;-66
2022/04/05 03:00:47;;;;;;;9.10;7.13;;;8.10;99.90;;;;;;5018374;28;20889;-66
2022/04/05 03:03:14;;;;;;;7.90;7.10;;;8.20;99.90;;;;;;5018182;28;20468;-66
2022/04/05 03:05:43;;;;;;;7.57;6.77;;;8.10;99.90;;;;;;5018348;28;20475;-66
2022/04/05 03:08:10;;;;;;;7.90;7.03;;;8.20;99.90;;;;;;5032850;28;20459;-65
2022/04/05 03:10:43;;;;;;;7.27;6.57;;;8.10;99.90;;;;;;5037109;28;20499;-65
2022/04/05 03:13:11;;;;;;;8.83;7.07;;;8.10;99.90;;;;;;5018066;28;20464;-66
2022/04/05 03:15:41;;;;;;;7.57;6.70;;;8.20;99.90;;;;;;5018647;28;20468;-66
2022/04/05 03:18:11;;;;;;;6.90;6.20;;;8.10;99.90;;;;;;5028320;28;20463;-66
2022/04/05 03:20:47;;;;;;;7.23;6.53;;;8.20;99.90;;;;;;5037918;28;20458;-65
2022/04/05 03:23:16;;;;;;;7.40;6.60;;;8.20;99.90;;;;;;5037675;28;20470;-66
2022/04/05 03:25:45;;;;;;;7.20;6.30;;;8.20;99.90;;;;;;5038202;28;20906;-66
2022/04/05 03:28:15;;;;;;;8.10;6.57;;;8.20;99.90;;;;;;5029160;28;20910;-66
2022/04/05 03:30:43;;;;;;;7.10;6.43;;;8.20;99.90;;;;;;5017882;28;20542;-65
2022/04/05 03:33:15;;;;;;;6.70;6.10;;;8.20;99.90;;;;;;5018193;28;20983;-66
2022/04/05 03:35:46;;;;;;;7.60;6.83;;;8.20;99.90;;;;;;5018183;28;20837;-66
2022/04/05 03:38:13;;;;;;;8.20;7.40;;;8.20;99.90;;;;;;5020742;28;20745;-67
2022/04/05 03:40:47;;;;;;;6.23;5.63;;;8.20;99.90;;;;;;5037496;28;20463;-66
2022/04/05 03:43:17;;;;;;;6.03;5.43;;;8.30;99.90;;;;;;5041425;28;20467;-65
2022/04/05 03:45:47;;;;;;;6.23;5.60;;;8.30;99.90;;;;;;5042182;28;20506;-65
2022/04/05 03:48:15;;;;;;;6.27;5.67;;;8.30;99.90;;;;;;5040673;28;20489;-66
2022/04/05 03:50:45;;;;;;;5.57;5.03;;;8.20;99.90;;;;;;5021811;28;20555;-66
2022/04/05 03:53:12;;;;;;;6.30;5.70;;;8.30;99.90;;;;;;5021365;28;20475;-66
2022/04/05 03:55:39;;;;;;;6.40;5.63;;;8.30;99.90;;;;;;5022218;28;20550;-65
2022/04/05 03:58:11;;;;;;;6.77;5.73;;;8.30;99.90;;;;;;5021803;28;20464;-65
2022/04/05 04:00:41;;;;;;;7.30;6.20;;;8.30;99.90;;;;;;5027047;28;20467;-65
2022/04/05 04:03:10;;;;;;;6.90;6.20;;;8.30;99.90;;;;;;5022612;28;20539;-63
2022/04/05 04:05:39;;;;;;;6.03;5.30;;;8.30;99.90;;;;;;5021911;28;20499;-63
2022/04/05 04:08:07;;;;;;;6.17;5.57;;;8.40;99.90;;;;;;5021870;28;20770;-66
2022/04/05 04:10:34;;;;;;;7.57;6.70;;;8.40;99.90;;;;;;5032427;28;20505;-65
2022/04/05 04:13:01;;;;;;;6.90;6.20;;;8.40;99.90;;;;;;5028220;28;20456;-65
2022/04/05 04:15:28;;;;;;;6.97;6.27;;;8.30;99.90;;;;;;5041646;28;20474;-65
2022/04/05 04:17:59;;;;;;;7.00;6.30;;;8.40;99.90;;;;;;5039373;28;20941;-63
2022/04/05 04:20:31;;;;;;;7.87;7.17;;;8.40;99.90;;;;;;5040978;28;20508;-63
2022/04/05 04:23:02;;;;;;;8.30;7.50;;;8.30;99.90;;;;;;5040259;28;20915;-63
2022/04/05 04:25:31;;;;;;;7.60;6.90;;;8.40;99.90;;;;;;5038833;28;20487;-63
2022/04/05 04:27:58;;;;;;;9.60;8.70;;;8.30;99.90;;;;;;5022873;28;20472;-63
2022/04/05 04:30:25;;;;;;;9.53;8.53;;;8.30;99.90;;;;;;5019193;28;20891;-63
2022/04/05 04:32:55;;;;;;;9.77;8.83;;;8.30;99.90;;;;;;5031606;28;20463;-63
2022/04/05 04:35:25;;;;;;;11.23;9.47;;;8.30;99.90;;;;;;5039044;28;20467;-63
2022/04/05 04:37:54;;;;;;;12.20;10.90;;;8.20;99.90;;;;;;5038983;28;20509;-63
2022/04/05 04:40:23;;;;;;;11.67;9.77;;;8.30;99.90;;;;;;5018055;28;20468;-63
2022/04/05 04:42:53;;;;;;;12.10;9.50;;;8.20;99.90;;;;;;5036541;28;20506;-63
2022/04/05 04:45:21;;;;;;;11.97;10.33;;;8.20;99.90;;;;;;5037753;28;20463;-64
2022/04/05 04:47:48;;;;;;;11.87;9.90;;;8.20;99.90;;;;;;5027781;28;20471;-63
2022/04/05 04:50:18;;;;;;;13.20;10.73;;;8.20;99.90;;;;;;5027331;28;20484;-64
2022/04/05 04:52:48;;;;;;;12.73;10.00;;;8.30;99.90;;;;;;5027520;28;20494;-63
2022/04/05 04:55:38;;;;;;;15.17;10.90;;;8.30;99.90;;;;;;5024695;28;20468;-64
2022/04/05 04:58:07;;;;;;;11.93;9.80;;;8.30;99.90;;;;;;5027303;28;20459;-64
2022/04/05 05:00:34;;;;;;;14.17;11.00;;;8.20;99.90;;;;;;5026101;28;20487;-64
2022/04/05 05:03:01;;;;;;;15.57;11.97;;;8.20;99.90;;;;;;5023618;28;20464;-64
2022/04/05 05:05:31;;;;;;;12.67;11.10;;;8.20;99.90;;;;;;5025868;28;20500;-64
2022/04/05 05:08:01;;;;;;;14.57;12.03;;;8.20;99.90;;;;;;5029515;28;20509;-64
2022/04/05 05:10:33;;;;;;;13.67;11.97;;;8.20;99.90;;;;;;5025302;28;20499;-63
2022/04/05 05:13:02;;;;;;;15.60;11.80;;;8.30;99.90;;;;;;5025829;28;20526;-64
2022/04/05 05:15:32;;;;;;;16.33;13.90;;;8.30;99.90;;;;;;5029367;28;20900;-64
2022/04/05 05:18:03;;;;;;;15.00;13.30;;;8.20;99.90;;;;;;5031653;28;20486;-63
2022/04/05 05:20:30;;;;;;;15.30;13.60;;;8.30;99.90;;;;;;5026123;28;20460;-64
2022/04/05 05:22:57;;;;;;;16.80;14.40;;;8.30;99.90;;;;;;5027680;28;20513;-65
2022/04/05 05:25:23;;;;;;;18.40;14.50;;;8.40;99.90;;;;;;5025067;28;20875;-65
2022/04/05 05:27:51;;;;;;;19.10;16.57;;;8.40;99.90;;;;;;5025743;28;20487;-65
2022/04/05 05:30:22;;;;;;;20.30;17.13;;;8.40;99.90;;;;;;5025077;28;20513;-65
2022/04/05 05:32:50;;;;;;;21.97;17.00;;;8.40;99.90;;;;;;5025973;28;20470;-65
2022/04/05 05:35:18;;;;;;;24.37;18.87;;;8.40;99.90;;;;;;5024750;28;20471;-62
2022/04/05 05:37:56;;;;;;;23.67;17.90;;;8.40;99.90;;;;;;5020832;28;20483;-61
2022/04/05 05:40:25;;;;;;;23.50;18.17;;;8.50;99.90;;;;;;5022494;28;20487;-60
2022/04/05 05:42:57;;;;;;;21.30;17.47;;;8.40;99.90;;;;;;5024813;28;20495;-61
2022/04/05 05:45:26;;;;;;;23.10;16.63;;;8.50;99.90;;;;;;5028365;28;20464;-61
2022/04/05 05:47:56;;;;;;;19.80;17.40;;;8.50;99.90;;;;;;5020743;28;20938;-62
2022/04/05 05:50:29;;;;;;;19.20;16.83;;;8.50;99.90;;;;;;5021548;28;20556;-62
2022/04/05 05:52:59;;;;;;;20.40;16.87;;;8.50;99.90;;;;;;5022215;28;20503;-61
2022/04/05 05:55:27;;;;;;;19.13;15.93;;;8.60;99.90;;;;;;5024052;28;20509;-61
2022/04/05 05:57:53;;;;;;;19.23;16.47;;;8.60;99.90;;;;;;5037355;28;20880;-62
2022/04/05 06:00:26;;;;;;;17.67;13.97;;;8.60;99.90;;;;;;5037038;28;20486;-61
2022/04/05 06:02:56;;;;;;;14.37;12.40;;;8.70;99.90;;;;;;5028273;28;20552;-61
2022/04/05 06:05:28;;;;;;;14.67;11.50;;;8.70;99.90;;;;;;5034523;28;20499;-63
2022/04/05 06:07:56;;;;;;;12.50;11.20;;;8.70;99.90;;;;;;5019066;28;20464;-63
2022/04/05 06:10:24;;;;;;;13.67;12.27;;;8.80;99.90;;;;;;5017985;28;20603;-64
2022/04/05 06:12:55;;;;;;;15.43;12.07;;;8.80;99.90;;;;;;5017714;28;20472;-64
2022/04/05 06:15:27;;;;;;;13.97;12.57;;;8.90;99.90;;;;;;5023118;28;20468;-64
2022/04/05 06:17:59;;;;;;;13.33;11.93;;;9.00;99.90;;;;;;5017677;28;20522;-64
2022/04/05 06:20:28;;;;;;;12.23;11.03;;;9.00;99.90;;;;;;5018320;28;20558;-64
2022/04/05 06:22:59;;;;;;;13.60;11.17;;;9.00;99.90;;;;;;5018830;28;20527;-63
2022/04/05 06:25:28;;;;;;;11.50;10.40;;;9.00;99.90;;;;;;5018641;28;20535;-63
2022/04/05 06:28:02;;;;;;;12.43;10.90;;;9.10;99.90;;;;;;5018896;28;20534;-62
2022/04/05 06:30:38;;;;;;;12.40;11.20;;;9.10;99.90;;;;;;5024299;28;20568;-63
2022/04/05 06:33:26;;;;;;;12.70;11.40;;;9.00;99.90;;;;;;5025014;28;20933;-64
2022/04/05 06:35:57;;;;;;;13.93;11.10;;;9.00;99.90;;;;;;5023344;28;20468;-62
2022/04/05 06:38:27;;;;;;;13.13;10.87;;;9.10;99.90;;;;;;5018046;28;20769;-63
2022/04/05 06:41:00;;;;;;;12.03;10.57;;;9.10;99.90;;;;;;5020685;28;20571;-64
2022/04/05 06:43:30;;;;;;;12.63;11.30;;;9.10;99.90;;;;;;5017452;28;20476;-64
2022/04/05 06:46:01;;;;;;;13.47;11.30;;;9.10;99.90;;;;;;5029261;28;20511;-63
2022/04/05 06:48:28;;;;;;;11.47;10.40;;;9.20;99.90;;;;;;5039027;28;20800;-64
2022/04/05 06:50:58;;;;;;;12.27;10.83;;;9.20;99.90;;;;;;5032568;28;20957;-65
2022/04/05 06:53:27;;;;;;;13.27;11.87;;;9.30;99.90;;;;;;5033528;28;20471;-66
2022/04/05 06:55:57;;;;;;;12.37;11.07;;;9.30;99.90;;;;;;5023153;28;20481;-66
2022/04/05 06:58:24;;;;;;;16.30;12.00;;;9.30;99.90;;;;;;5027756;28;20557;-66
2022/04/05 07:00:58;;;;;;;16.80;12.40;;;9.40;99.90;;;;;;5019499;28;20491;-66
2022/04/05 07:03:28;;;;;;;12.37;11.17;;;9.40;99.90;;;;;;5020135;28;20472;-64
2022/04/05 07:05:58;;;;;;;13.23;11.93;;;9.40;99.90;;;;;;5023102;28;20461;-62
2022/04/05 07:08:25;;;;;;;13.47;12.10;;;9.40;99.90;;;;;;5030864;28;20475;-64
2022/04/05 07:10:57;;;;;;;11.43;9.90;;;9.50;99.90;;;;;;5024237;28;20550;-63
2022/04/05 07:13:35;;;;;;;11.43;10.23;;;9.40;99.90;;;;;;5024006;28;20561;-64
2022/04/05 07:16:10;;;;;;;12.47;9.93;;;9.40;99.90;;;;;;5020321;28;20491;-63
2022/04/05 07:18:41;;;;;;;12.90;10.23;;;9.40;99.90;;;;;;5033475;28;20479;-63
2022/04/05 07:21:13;;;;;;;11.10;9.90;;;9.40;99.90;;;;;;5028890;28;20479;-62
2022/04/05 07:23:40;;;;;;;11.90;10.80;;;9.40;99.90;;;;;;5023590;28;20479;-63
2022/04/05 07:26:12;;;;;;;12.73;11.43;;;9.40;99.90;;;;;;5031041;28;20524;-63
2022/04/05 07:28:41;;;;;;;18.67;16.90;;;9.40;99.90;;;;;;5030270;28;20561;-65
2022/04/05 07:31:08;;;;;;;14.10;11.80;;;9.40;99.90;;;;;;5036187;28;20935;-64
2022/04/05 07:33:34;;;;;;;14.60;12.87;;;9.30;99.90;;;;;;5027991;28;20465;-64
2022/04/05 07:36:06;;;;;;;15.60;14.00;;;9.30;99.90;;;;;;5018631;28;20522;-65
2022/04/05 07:38:33;;;;;;;17.40;15.60;;;9.30;99.90;;;;;;5016817;28;20522;-65
2022/04/05 07:41:00;;;;;;;19.37;17.37;;;9.30;99.90;;;;;;5030899;28;20895;-64
2022/04/05 07:43:34;;;;;;;14.53;12.93;;;9.30;99.90;;;;;;5018198;28;20468;-64
2022/04/05 07:46:09;;;;;;;16.03;14.27;;;9.30;99.90;;;;;;5020164;28;20915;-63
2022/04/05 07:48:39;;;;;;;13.97;12.13;;;9.30;99.90;;;;;;5021377;28;20517;-63
2022/04/05 07:51:10;;;;;;;11.63;10.13;;;9.40;99.90;;;;;;5015928;28;20527;-63
2022/04/05 07:53:39;;;;;;;20.30;16.70;;;9.40;99.90;;;;;;5023558;28;20792;-64
2022/04/05 07:56:12;;;;;;;12.30;9.80;;;9.40;99.90;;;;;;5031377;28;20468;-65
2022/04/05 07:58:42;;;;;;;10.63;9.50;;;9.40;99.90;;;;;;5035670;28;20470;-65
2022/04/05 08:01:13;;;;;;;9.93;8.10;;;9.50;99.90;;;;;;5036387;28;20463;-64
2022/04/05 08:03:42;;;;;;;9.03;8.13;;;9.40;99.90;;;;;;5022814;28;20514;-64
2022/04/05 08:06:13;;;;;;;7.77;6.97;;;9.50;99.90;;;;;;5015495;28;20605;-64
2022/04/05 08:08:42;;;;;;;7.97;6.93;;;9.40;99.90;;;;;;5016307;28;20460;-64
2022/04/05 08:11:13;;;;;;;8.07;7.27;;;9.40;99.90;;;;;;5015144;28;20735;-64
2022/04/05 08:13:40;;;;;;;8.77;7.97;;;9.40;99.90;;;;;;5017550;28;20467;-64
2022/04/05 08:16:07;;;;;;;12.30;10.53;;;9.40;99.90;;;;;;5035745;28;20497;-64
2022/04/05 08:18:34;;;;;;;10.07;9.03;;;9.50;99.90;;;;;;5036275;28;20528;-64
2022/04/05 08:21:01;;;;;;;11.30;9.57;;;9.40;99.90;;;;;;5024481;28;20826;-64
2022/04/05 08:23:29;;;;;;;11.27;9.93;;;9.40;99.90;;;;;;5017192;28;20518;-65
2022/04/05 08:25:58;;;;;;;11.23;9.97;;;9.40;99.90;;;;;;5030284;28;20537;-64
2022/04/05 08:28:26;;;;;;;10.47;8.87;;;9.40;99.90;;;;;;5037261;28;20437;-65
2022/04/05 08:30:55;;;;;;;11.03;9.93;;;9.40;99.90;;;;;;5033643;28;20847;-65
2022/04/05 08:33:22;;;;;;;11.17;9.93;;;9.40;99.90;;;;;;5020383;28;20476;-64
2022/04/05 08:35:49;;;;;;;11.30;10.20;;;9.40;99.90;;;;;;5030011;28;20466;-64
2022/04/05 08:38:16;;;;;;;12.80;11.53;;;9.50;99.90;;;;;;5039747;28;20464;-63
2022/04/05 08:40:55;;;;;;;13.53;12.10;;;9.50;99.90;;;;;;5020383;28;20474;-64
2022/04/05 08:43:22;;;;;;;12.90;11.60;;;9.60;99.90;;;;;;5020382;28;20771;-65
2022/04/05 08:46:00;;;;;;;14.37;12.83;;;9.60;99.90;;;;;;5025937;28;20536;-64
2022/04/05 08:48:35;;;;;;;12.73;11.53;;;9.70;99.90;;;;;;5039272;28;20903;-64
2022/04/05 08:51:05;;;;;;;13.80;12.40;;;9.70;99.90;;;;;;5028119;28;20925;-63
2022/04/05 08:53:35;;;;;;;14.33;12.83;;;9.70;99.90;;;;;;5029888;28;20467;-64
2022/04/05 08:56:09;;;;;;;15.23;13.63;;;9.70;99.90;;;;;;5023382;28;20460;-63
2022/04/05 08:58:38;;;;;;;13.50;12.20;;;9.70;99.90;;;;;;5029664;28;20455;-63
2022/04/05 09:01:17;;;;;;;15.50;14.00;;;9.70;99.90;;;;;;5027466;28;20471;-63
2022/04/05 09:03:47;;;;;;;15.57;13.80;;;9.70;99.90;;;;;;5019776;28;20825;-63
2022/04/05 09:06:36;;;;;;;14.97;13.50;;;9.80;99.90;;;;;;5021502;28;20472;-63
2022/04/05 09:09:10;;;;;;;15.90;14.30;;;9.80;99.90;;;;;;5039064;28;20585;-64
2022/04/05 09:11:44;;;;;;;14.90;13.37;;;9.90;99.90;;;;;;5038369;28;20544;-63
2022/04/05 09:14:11;;;;;;;16.63;13.43;;;9.80;99.90;;;;;;5020882;28;20489;-64
2022/04/05 09:16:42;;;;;;;17.80;14.90;;;9.80;99.90;;;;;;5024715;28;20547;-64
2022/04/05 09:19:13;;;;;;;21.80;14.80;;;9.80;99.90;;;;;;5030211;28;20462;-64
2022/04/05 09:21:56;;;;;;;16.63;14.83;;;9.80;99.90;;;;;;5028682;28;20452;-64
2022/04/05 09:24:33;;;;;;;15.03;13.43;;;9.80;99.90;;;;;;5027986;28;20518;-64
2022/04/05 09:27:04;;;;;;;13.97;12.57;;;9.70;99.90;;;;;;5024186;28;21075;-63
2022/04/05 09:29:43;;;;;;;18.97;15.30;;;9.70;99.90;;;;;;5024049;28;20466;-63
2022/04/05 09:32:32;;;;;;;15.17;13.70;;;9.70;99.90;;;;;;5032154;28;20491;-63
2022/04/05 09:35:07;;;;;;;18.87;15.50;;;9.80;99.90;;;;;;5018716;28;20464;-63
2022/04/05 09:37:38;;;;;;;18.60;16.00;;;9.80;99.90;;;;;;5022695;28;20943;-63
2022/04/05 09:40:23;;;;;;;16.93;15.17;;;9.80;99.90;;;;;;5017609;28;20698;-63
2022/04/05 09:43:07;;;;;;;15.03;13.53;;;9.80;99.90;;;;;;5018705;28;20510;-63
2022/04/05 09:45:46;;;;;;;16.20;14.50;;;9.80;99.90;;;;;;5034995;28;20796;-63
2022/04/05 09:48:14;;;;;;;15.70;14.10;;;9.70;99.90;;;;;;5034395;28;20522;-64
2022/04/05 09:51:02;;;;;;;14.43;13.03;;;9.70;99.90;;;;;;5036792;28;20470;-63
2022/04/05 09:53:47;;;;;;;15.90;14.40;;;9.80;99.90;;;;;;5020338;28;20466;-63
2022/04/05 09:56:32;;;;;;;15.73;14.23;;;9.80;99.90;;;;;;5017536;28;20500;-64
2022/04/05 09:59:18;;;;;;;15.13;12.67;;;9.80;99.90;;;;;;5023473;28;20968;-64
2022/04/05 10:01:46;;;;;;;15.57;13.97;;;9.80;99.90;;;;;;5018586;28;20765;-63
2022/04/05 10:04:14;;;;;;;13.50;12.23;;;9.80;99.90;;;;;;5017911;28;20460;-63
2022/04/05 10:06:44;;;;;;;12.63;10.90;;;9.80;99.90;;;;;;5018100;28;20567;-65
2022/04/05 10:09:15;;;;;;;12.80;11.50;;;9.70;99.90;;;;;;5019454;28;20864;-65
2022/04/05 10:11:44;;;;;;;14.17;12.67;;;9.70;99.90;;;;;;5036045;28;20557;-63
2022/04/05 10:14:14;;;;;;;13.77;12.37;;;9.70;99.90;;;;;;5036686;28;20513;-63
2022/04/05 10:16:48;;;;;;;12.30;11.10;;;9.80;99.90;;;;;;5021734;28;20786;-65
2022/04/05 10:19:17;;;;;;;12.37;11.17;;;9.70;99.90;;;;;;5017447;28;20778;-65
2022/04/05 10:21:45;;;;;;;15.43;13.83;;;9.70;99.90;;;;;;5019689;28;20743;-65
2022/04/05 10:24:16;;;;;;;13.53;12.13;;;9.70;99.90;;;;;;5037049;28;20464;-64
2022/04/05 10:26:50;;;;;;;16.23;14.00;;;9.70;99.90;;;;;;5025380;28;20765;-64
2022/04/05 10:29:31;;;;;;;14.70;13.33;;;9.70;99.90;;;;;;5021024;28;20470;-64
2022/04/05 10:32:10;;;;;;;14.50;13.10;;;9.80;99.90;;;;;;5017037;28;20523;-64
2022/04/05 10:34:50;;;;;;;18.00;16.30;;;9.80;99.90;;;;;;5017325;28;20469;-64
2022/04/05 10:37:30;;;;;;;17.20;15.40;;;9.70;99.90;;;;;;5020415;28;20521;-65
2022/04/05 10:40:21;;;;;;;14.10;12.30;;;9.80;99.90;;;;;;5017978;28;20811;-65
2022/04/05 10:42:53;;;;;;;14.57;13.17;;;9.80;99.90;;;;;;5017585;28;20880;-63
2022/04/05 10:45:25;;;;;;;19.20;13.33;;;9.90;99.90;;;;;;5028828;28;20495;-65
2022/04/05 10:48:12;;;;;;;15.97;13.27;;;10.20;99.90;;;;;;5025108;28;20554;-65
2022/04/05 10:50:42;;;;;;;15.37;11.80;;;10.80;99.90;;;;;;5024904;28;20546;-64
2022/04/05 10:53:15;;;;;;;12.03;10.87;;;11.00;99.90;;;;;;5026186;28;20562;-64
2022/04/05 10:56:14;;;;;;;11.80;10.63;;;11.30;99.90;;;;;;5027995;28;20522;-64
2022/04/05 10:59:02;;;;;;;10.33;9.43;;;11.40;99.90;;;;;;5022960;28;20472;-64
2022/04/05 11:01:48;;;;;;;10.40;9.40;;;11.40;99.90;;;;;;5023455;28;20479;-64
2022/04/05 11:04:34;;;;;;;11.50;10.43;;;11.30;99.90;;;;;;5016888;28;20464;-64
2022/04/05 11:07:12;;;;;;;10.80;9.80;;;11.30;99.90;;;;;;5017456;28;20786;-65
2022/04/05 11:09:48;;;;;;;12.40;11.10;;;11.50;99.90;;;;;;5016785;28;20464;-65
2022/04/05 11:12:24;;;;;;;11.30;9.90;;;11.70;99.90;;;;;;5017055;28;20857;-64
2022/04/05 11:14:56;;;;;;;9.83;9.00;;;12.40;99.90;;;;;;5019692;28;20471;-64
2022/04/05 11:17:27;;;;;;;9.40;8.50;;;12.40;99.90;;;;;;5016288;28;20522;-63
2022/04/05 11:19:56;;;;;;;12.67;10.17;;;12.30;99.90;;;;;;5016134;28;20936;-64
2022/04/05 11:22:32;;;;;;;11.30;10.30;;;12.10;99.90;;;;;;5022695;28;20470;-64
2022/04/05 11:25:03;;;;;;;10.63;9.63;;;11.90;99.90;;;;;;5021141;28;20468;-64
2022/04/05 11:27:44;;;;;;;11.87;10.77;;;11.80;99.90;;;;;;5032962;28;20477;-64
2022/04/05 11:30:38;;;;;;;10.47;9.47;;;12.00;99.90;;;;;;5018812;28;20982;-64
2022/04/05 11:33:37;;;;;;;11.20;10.20;;;12.00;99.90;;;;;;5017339;28;20535;-64
2022/04/05 11:36:07;;;;;;;11.47;10.40;;;11.80;99.90;;;;;;5023553;28;20536;-64
2022/04/05 11:38:40;;;;;;;11.30;9.17;;;11.60;99.90;;;;;;5026464;28;20982;-65
2022/04/05 11:41:09;;;;;;;10.43;9.47;;;11.50;99.90;;;;;;5028381;28;20474;-65
2022/04/05 11:43:41;;;;;;;11.83;10.87;;;11.40;99.90;;;;;;5030858;28;20456;-64
2022/04/05 11:46:13;;;;;;;14.13;12.60;;;11.20;99.90;;;;;;5017622;28;20468;-64
2022/04/05 11:48:43;;;;;;;15.70;12.93;;;11.20;99.90;;;;;;5016732;28;20471;-62
2022/04/05 11:51:15;;;;;;;12.10;10.90;;;11.40;99.90;;;;;;5033549;28;20520;-62
2022/04/05 11:53:46;;;;;;;11.77;10.67;;;11.50;99.90;;;;;;5019468;28;20569;-62
2022/04/05 11:56:18;;;;;;;11.30;10.30;;;11.50;99.90;;;;;;5036313;28;20502;-62
2022/04/05 11:58:56;;;;;;;10.63;9.73;;;11.30;99.90;;;;;;5036508;28;20470;-62
2022/04/05 12:01:24;;;;;;;12.87;11.63;;;11.40;99.90;;;;;;5020245;28;20472;-61
2022/04/05 12:03:54;;;;;;;13.27;12.07;;;11.50;99.90;;;;;;5024381;28;20562;-61
2022/04/05 12:06:32;;;;;;;17.20;14.10;;;11.50;99.90;;;;;;5019233;28;20478;-61
2022/04/05 12:09:04;;;;;;;13.50;12.40;;;11.40;99.90;;;;;;5020177;28;20554;-62
2022/04/05 12:11:37;;;;;;;10.40;9.40;;;11.40;99.90;;;;;;5019723;28;20492;-61
2022/04/05 12:14:22;;;;;;;15.57;11.20;;;11.30;99.90;;;;;;5028093;28;20459;-62
2022/04/05 12:16:51;;;;;;;8.80;8.10;;;11.20;99.90;;;;;;5024411;28;20541;-62
2022/04/05 12:19:23;;;;;;;9.27;8.40;;;11.20;99.90;;;;;;5028287;28;20490;-63
2022/04/05 12:21:57;;;;;;;8.40;7.70;;;11.20;99.90;;;;;;5026946;28;20771;-63
2022/04/05 12:24:27;;;;;;;9.70;8.80;;;11.40;99.90;;;;;;5026131;28;20456;-64
2022/04/05 12:26:58;;;;;;;9.00;8.10;;;11.40;99.90;;;;;;5029872;28;20466;-62
2022/04/05 12:29:26;;;;;;;9.77;8.97;;;11.50;99.90;;;;;;5028966;28;20518;-66
2022/04/05 12:31:56;;;;;;;10.70;9.67;;;11.40;99.90;;;;;;5022771;28;20467;-66
2022/04/05 12:34:23;;;;;;;9.87;9.00;;;11.30;99.90;;;;;;5020435;28;20880;-65
2022/04/05 12:36:57;;;;;;;8.60;7.87;;;11.40;99.90;;;;;;5023331;28;20558;-65
2022/04/05 12:39:26;;;;;;;9.40;8.50;;;11.30;99.90;;;;;;5024163;28;20935;-65
2022/04/05 12:41:57;;;;;;;14.20;12.13;;;11.30;99.90;;;;;;5025218;28;20562;-65
2022/04/05 12:44:30;;;;;;;10.63;9.63;;;11.40;99.90;;;;;;5024603;28;20521;-65
2022/04/05 12:47:02;;;;;;;11.50;10.40;;;11.40;99.90;;;;;;5026195;28;20470;-65
2022/04/05 12:49:40;;;;;;;10.23;9.20;;;11.40;99.90;;;;;;5026498;28;20541;-65
2022/04/05 12:52:12;;;;;;;13.77;12.47;;;11.40;99.90;;;;;;5024047;28;20473;-65
2022/04/05 12:54:46;;;;;;;15.03;10.87;;;11.30;99.90;;;;;;5018246;28;20464;-65
2022/04/05 12:57:22;;;;;;;11.13;9.77;;;11.10;99.90;;;;;;5027296;28;20561;-65
2022/04/05 12:59:54;;;;;;;16.10;11.87;;;11.20;99.90;;;;;;5029476;28;20459;-65
2022/04/05 13:02:27;;;;;;;12.20;11.20;;;11.30;99.90;;;;;;5024058;28;20794;-65